sensor_id;sensor_type;location;lat;lon;timestamp;P1;durP1;ratioP1;P2;durP2;ratioP2
56999;SDS011;42891;50.006;21.964;2024-01-10T00:02:12;584.72;;;250.02;;
56999;SDS011;42891;50.006;21.964;2024-01-10T00:06:13;626.00;;;263.00;;
56999;SDS011;42891;50.006;21.964;2024-01-10T00:10:13;640.25;;;267.38;;
56999;SDS011;42891;50.006;21.964;2024-01-10T00:14:13;597.13;;;248.20;;
56999;SDS011;42891;50.006;21.964;2024-01-10T00:18:14;590.60;;;248.15;;
56999;SDS011;42891;50.006;21.964;2024-01-10T00:22:14;530.10;;;215.23;;
56999;SDS011;42891;50.006;21.964;2024-01-10T00:26:14;524.53;;;215.43;;
56999;SDS011;42891;50.006;21.964;2024-01-10T00:30:16;503.27;;;204.93;;
56999;SDS011;42891;50.006;21.964;2024-01-10T00:34:16;471.52;;;183.27;;
56999;SDS011;42891;50.006;21.964;2024-01-10T00:38:16;469.38;;;185.10;;
56999;SDS011;42891;50.006;21.964;2024-01-10T00:42:17;449.27;;;171.05;;
56999;SDS011;42891;50.006;21.964;2024-01-10T00:46:18;461.88;;;182.35;;
56999;SDS011;42891;50.006;21.964;2024-01-10T00:50:18;440.63;;;168.15;;
56999;SDS011;42891;50.006;21.964;2024-01-10T00:54:18;444.30;;;166.85;;
56999;SDS011;42891;50.006;21.964;2024-01-10T00:58:19;430.20;;;163.73;;
56999;SDS011;42891;50.006;21.964;2024-01-10T01:02:19;429.25;;;156.77;;
56999;SDS011;42891;50.006;21.964;2024-01-10T01:06:19;416.98;;;156.77;;
56999;SDS011;42891;50.006;21.964;2024-01-10T01:10:20;431.15;;;158.82;;
56999;SDS011;42891;50.006;21.964;2024-01-10T01:14:20;388.55;;;143.23;;
56999;SDS011;42891;50.006;21.964;2024-01-10T01:18:20;386.10;;;138.35;;
56999;SDS011;42891;50.006;21.964;2024-01-10T01:22:21;373.35;;;137.25;;
56999;SDS011;42891;50.006;21.964;2024-01-10T01:26:21;378.40;;;135.23;;
56999;SDS011;42891;50.006;21.964;2024-01-10T01:30:21;368.35;;;135.27;;
56999;SDS011;42891;50.006;21.964;2024-01-10T01:34:21;353.40;;;124.22;;
56999;SDS011;42891;50.006;21.964;2024-01-10T01:38:22;330.02;;;122.72;;
56999;SDS011;42891;50.006;21.964;2024-01-10T01:42:22;362.75;;;128.73;;
56999;SDS011;42891;50.006;21.964;2024-01-10T01:46:23;326.42;;;122.18;;
56999;SDS011;42891;50.006;21.964;2024-01-10T01:50:23;321.05;;;115.10;;
56999;SDS011;42891;50.006;21.964;2024-01-10T01:54:24;321.67;;;116.20;;
56999;SDS011;42891;50.006;21.964;2024-01-10T01:58:24;292.67;;;108.32;;
56999;SDS011;42891;50.006;21.964;2024-01-10T02:02:25;283.10;;;106.38;;
56999;SDS011;42891;50.006;21.964;2024-01-10T02:06:25;278.95;;;105.13;;
56999;SDS011;42891;50.006;21.964;2024-01-10T02:10:26;290.25;;;108.05;;
56999;SDS011;42891;50.006;21.964;2024-01-10T02:14:26;293.73;;;108.45;;
56999;SDS011;42891;50.006;21.964;2024-01-10T02:18:26;297.38;;;106.97;;
56999;SDS011;42891;50.006;21.964;2024-01-10T02:22:27;283.67;;;104.45;;
56999;SDS011;42891;50.006;21.964;2024-01-10T02:26:27;273.85;;;106.03;;
56999;SDS011;42891;50.006;21.964;2024-01-10T02:30:28;304.75;;;112.15;;
56999;SDS011;42891;50.006;21.964;2024-01-10T02:34:29;284.20;;;106.43;;
56999;SDS011;42891;50.006;21.964;2024-01-10T02:38:30;283.17;;;108.57;;
56999;SDS011;42891;50.006;21.964;2024-01-10T02:42:31;295.90;;;110.82;;
56999;SDS011;42891;50.006;21.964;2024-01-10T02:46:32;294.33;;;110.05;;
56999;SDS011;42891;50.006;21.964;2024-01-10T02:50:32;285.77;;;107.60;;
56999;SDS011;42891;50.006;21.964;2024-01-10T02:54:34;316.15;;;115.82;;
56999;SDS011;42891;50.006;21.964;2024-01-10T02:58:34;337.02;;;120.07;;
56999;SDS011;42891;50.006;21.964;2024-01-10T03:02:34;354.48;;;130.52;;
56999;SDS011;42891;50.006;21.964;2024-01-10T03:06:34;369.17;;;131.32;;
56999;SDS011;42891;50.006;21.964;2024-01-10T03:10:35;369.35;;;127.40;;
56999;SDS011;42891;50.006;21.964;2024-01-10T03:14:35;353.67;;;125.00;;
56999;SDS011;42891;50.006;21.964;2024-01-10T03:18:36;361.83;;;134.13;;
56999;SDS011;42891;50.006;21.964;2024-01-10T03:22:36;398.55;;;144.40;;
56999;SDS011;42891;50.006;21.964;2024-01-10T03:26:37;380.52;;;137.40;;
56999;SDS011;42891;50.006;21.964;2024-01-10T03:30:37;358.67;;;125.45;;
56999;SDS011;42891;50.006;21.964;2024-01-10T03:34:38;337.63;;;120.88;;
56999;SDS011;42891;50.006;21.964;2024-01-10T03:38:38;335.40;;;117.70;;
56999;SDS011;42891;50.006;21.964;2024-01-10T03:42:38;334.60;;;120.10;;
56999;SDS011;42891;50.006;21.964;2024-01-10T03:46:38;320.75;;;116.75;;
56999;SDS011;42891;50.006;21.964;2024-01-10T03:50:39;311.65;;;116.40;;
56999;SDS011;42891;50.006;21.964;2024-01-10T03:54:39;321.27;;;109.38;;
56999;SDS011;42891;50.006;21.964;2024-01-10T03:58:40;317.33;;;115.05;;
56999;SDS011;42891;50.006;21.964;2024-01-10T04:02:41;316.63;;;113.18;;
56999;SDS011;42891;50.006;21.964;2024-01-10T04:06:41;347.95;;;126.90;;
56999;SDS011;42891;50.006;21.964;2024-01-10T04:10:41;315.88;;;120.10;;
56999;SDS011;42891;50.006;21.964;2024-01-10T04:14:42;357.23;;;128.23;;
56999;SDS011;42891;50.006;21.964;2024-01-10T04:18:42;351.75;;;128.85;;
56999;SDS011;42891;50.006;21.964;2024-01-10T04:22:42;346.42;;;121.63;;
56999;SDS011;42891;50.006;21.964;2024-01-10T04:26:42;301.02;;;111.45;;
56999;SDS011;42891;50.006;21.964;2024-01-10T04:30:43;277.98;;;106.57;;
56999;SDS011;42891;50.006;21.964;2024-01-10T04:34:43;268.60;;;101.15;;
56999;SDS011;42891;50.006;21.964;2024-01-10T04:38:43;261.63;;;98.35;;
56999;SDS011;42891;50.006;21.964;2024-01-10T04:42:44;242.68;;;92.88;;
56999;SDS011;42891;50.006;21.964;2024-01-10T04:46:44;240.63;;;91.65;;
56999;SDS011;42891;50.006;21.964;2024-01-10T04:50:44;235.98;;;86.05;;
56999;SDS011;42891;50.006;21.964;2024-01-10T04:54:44;251.20;;;93.00;;
56999;SDS011;42891;50.006;21.964;2024-01-10T04:58:45;246.05;;;93.47;;
56999;SDS011;42891;50.006;21.964;2024-01-10T05:02:46;245.82;;;90.95;;
56999;SDS011;42891;50.006;21.964;2024-01-10T05:06:46;260.02;;;93.28;;
56999;SDS011;42891;50.006;21.964;2024-01-10T05:10:46;240.80;;;90.40;;
56999;SDS011;42891;50.006;21.964;2024-01-10T05:14:47;230.80;;;86.95;;
56999;SDS011;42891;50.006;21.964;2024-01-10T05:18:47;252.20;;;91.47;;
56999;SDS011;42891;50.006;21.964;2024-01-10T05:22:47;239.13;;;90.20;;
56999;SDS011;42891;50.006;21.964;2024-01-10T05:26:48;256.50;;;97.03;;
56999;SDS011;42891;50.006;21.964;2024-01-10T05:30:51;282.15;;;107.75;;
56999;SDS011;42891;50.006;21.964;2024-01-10T05:34:51;242.18;;;94.50;;
56999;SDS011;42891;50.006;21.964;2024-01-10T05:38:51;234.93;;;88.30;;
56999;SDS011;42891;50.006;21.964;2024-01-10T05:42:52;265.48;;;97.47;;
56999;SDS011;42891;50.006;21.964;2024-01-10T05:46:52;323.75;;;107.85;;
56999;SDS011;42891;50.006;21.964;2024-01-10T05:50:52;292.98;;;100.90;;
56999;SDS011;42891;50.006;21.964;2024-01-10T05:54:52;275.67;;;97.18;;
56999;SDS011;42891;50.006;21.964;2024-01-10T05:58:53;310.35;;;110.90;;
56999;SDS011;42891;50.006;21.964;2024-01-10T06:02:53;297.25;;;106.03;;
56999;SDS011;42891;50.006;21.964;2024-01-10T06:06:54;345.98;;;132.90;;
56999;SDS011;42891;50.006;21.964;2024-01-10T06:10:54;326.13;;;119.72;;
56999;SDS011;42891;50.006;21.964;2024-01-10T06:14:55;302.67;;;111.07;;
56999;SDS011;42891;50.006;21.964;2024-01-10T06:18:55;304.50;;;115.85;;
56999;SDS011;42891;50.006;21.964;2024-01-10T06:22:55;309.13;;;114.25;;
56999;SDS011;42891;50.006;21.964;2024-01-10T06:26:55;342.17;;;132.25;;
56999;SDS011;42891;50.006;21.964;2024-01-10T06:30:56;364.65;;;138.27;;
56999;SDS011;42891;50.006;21.964;2024-01-10T06:34:56;467.70;;;189.85;;
56999;SDS011;42891;50.006;21.964;2024-01-10T06:38:56;523.00;;;219.93;;
56999;SDS011;42891;50.006;21.964;2024-01-10T06:42:56;442.13;;;175.93;;
56999;SDS011;42891;50.006;21.964;2024-01-10T06:46:57;455.58;;;180.48;;
56999;SDS011;42891;50.006;21.964;2024-01-10T06:50:58;468.38;;;198.63;;
56999;SDS011;42891;50.006;21.964;2024-01-10T06:54:59;455.92;;;183.02;;
56999;SDS011;42891;50.006;21.964;2024-01-10T06:58:59;481.85;;;207.60;;
56999;SDS011;42891;50.006;21.964;2024-01-10T07:03:03;491.20;;;212.27;;
56999;SDS011;42891;50.006;21.964;2024-01-10T07:07:04;456.25;;;183.05;;
56999;SDS011;42891;50.006;21.964;2024-01-10T07:11:05;460.98;;;191.00;;
56999;SDS011;42891;50.006;21.964;2024-01-10T07:15:06;447.58;;;182.75;;
56999;SDS011;42891;50.006;21.964;2024-01-10T07:19:06;419.77;;;165.30;;
56999;SDS011;42891;50.006;21.964;2024-01-10T07:23:07;404.48;;;162.73;;
56999;SDS011;42891;50.006;21.964;2024-01-10T07:27:07;339.65;;;127.00;;
56999;SDS011;42891;50.006;21.964;2024-01-10T07:31:07;363.20;;;128.93;;
56999;SDS011;42891;50.006;21.964;2024-01-10T07:35:08;291.00;;;111.10;;
56999;SDS011;42891;50.006;21.964;2024-01-10T07:39:09;280.98;;;113.63;;
56999;SDS011;42891;50.006;21.964;2024-01-10T07:43:09;283.85;;;109.40;;
56999;SDS011;42891;50.006;21.964;2024-01-10T07:47:11;262.83;;;101.70;;
56999;SDS011;42891;50.006;21.964;2024-01-10T07:51:11;271.50;;;103.43;;
56999;SDS011;42891;50.006;21.964;2024-01-10T07:55:12;286.20;;;105.40;;
56999;SDS011;42891;50.006;21.964;2024-01-10T07:59:12;268.40;;;107.45;;
56999;SDS011;42891;50.006;21.964;2024-01-10T08:03:15;277.23;;;106.80;;
56999;SDS011;42891;50.006;21.964;2024-01-10T08:07:15;280.73;;;106.10;;
56999;SDS011;42891;50.006;21.964;2024-01-10T08:11:16;273.77;;;107.03;;
56999;SDS011;42891;50.006;21.964;2024-01-10T08:15:16;249.93;;;98.93;;
56999;SDS011;42891;50.006;21.964;2024-01-10T08:19:16;271.17;;;105.45;;
56999;SDS011;42891;50.006;21.964;2024-01-10T08:23:17;271.88;;;102.85;;
56999;SDS011;42891;50.006;21.964;2024-01-10T08:27:18;245.57;;;97.07;;
56999;SDS011;42891;50.006;21.964;2024-01-10T08:31:18;237.65;;;93.30;;
56999;SDS011;42891;50.006;21.964;2024-01-10T08:35:19;229.18;;;90.72;;
56999;SDS011;42891;50.006;21.964;2024-01-10T08:39:19;228.98;;;90.25;;
56999;SDS011;42891;50.006;21.964;2024-01-10T08:43:21;254.65;;;97.35;;
56999;SDS011;42891;50.006;21.964;2024-01-10T08:47:22;240.93;;;92.68;;
56999;SDS011;42891;50.006;21.964;2024-01-10T08:51:22;234.77;;;93.57;;
56999;SDS011;42891;50.006;21.964;2024-01-10T08:55:23;236.48;;;91.00;;
56999;SDS011;42891;50.006;21.964;2024-01-10T08:59:23;223.00;;;90.60;;
56999;SDS011;42891;50.006;21.964;2024-01-10T09:03:24;256.73;;;97.93;;
56999;SDS011;42891;50.006;21.964;2024-01-10T09:07:24;234.27;;;93.40;;
56999;SDS011;42891;50.006;21.964;2024-01-10T09:11:24;238.52;;;92.80;;
56999;SDS011;42891;50.006;21.964;2024-01-10T09:15:25;242.18;;;97.93;;
56999;SDS011;42891;50.006;21.964;2024-01-10T09:19:25;244.23;;;99.20;;
56999;SDS011;42891;50.006;21.964;2024-01-10T09:23:25;222.00;;;93.72;;
56999;SDS011;42891;50.006;21.964;2024-01-10T09:27:27;226.40;;;88.45;;
56999;SDS011;42891;50.006;21.964;2024-01-10T09:31:27;234.15;;;86.88;;
56999;SDS011;42891;50.006;21.964;2024-01-10T09:35:27;223.65;;;87.18;;
56999;SDS011;42891;50.006;21.964;2024-01-10T09:39:28;234.98;;;91.13;;
56999;SDS011;42891;50.006;21.964;2024-01-10T09:43:29;228.95;;;93.95;;
56999;SDS011;42891;50.006;21.964;2024-01-10T09:47:31;231.30;;;93.10;;
56999;SDS011;42891;50.006;21.964;2024-01-10T09:51:33;240.25;;;91.47;;
56999;SDS011;42891;50.006;21.964;2024-01-10T09:55:34;218.95;;;89.05;;
56999;SDS011;42891;50.006;21.964;2024-01-10T09:59:37;226.75;;;91.35;;
56999;SDS011;42891;50.006;21.964;2024-01-10T10:03:37;215.02;;;88.18;;
56999;SDS011;42891;50.006;21.964;2024-01-10T10:07:44;213.32;;;86.88;;
56999;SDS011;42891;50.006;21.964;2024-01-10T10:11:52;229.50;;;88.97;;
56999;SDS011;42891;50.006;21.964;2024-01-10T10:16:11;222.02;;;88.57;;
56999;SDS011;42891;50.006;21.964;2024-01-10T10:20:22;243.35;;;92.93;;
56999;SDS011;42891;50.006;21.964;2024-01-10T10:24:32;230.70;;;90.22;;
56999;SDS011;42891;50.006;21.964;2024-01-10T10:28:33;219.80;;;88.25;;
56999;SDS011;42891;50.006;21.964;2024-01-10T10:32:33;221.27;;;87.97;;
56999;SDS011;42891;50.006;21.964;2024-01-10T10:36:34;223.80;;;85.50;;
56999;SDS011;42891;50.006;21.964;2024-01-10T10:40:34;208.85;;;81.20;;
56999;SDS011;42891;50.006;21.964;2024-01-10T10:44:35;249.00;;;95.55;;
56999;SDS011;42891;50.006;21.964;2024-01-10T10:48:40;247.98;;;90.88;;
56999;SDS011;42891;50.006;21.964;2024-01-10T10:52:44;205.57;;;79.90;;
56999;SDS011;42891;50.006;21.964;2024-01-10T10:56:46;183.52;;;76.25;;
56999;SDS011;42891;50.006;21.964;2024-01-10T11:00:48;191.10;;;77.60;;
56999;SDS011;42891;50.006;21.964;2024-01-10T11:04:49;181.95;;;72.20;;
56999;SDS011;42891;50.006;21.964;2024-01-10T11:08:55;209.43;;;85.85;;
56999;SDS011;42891;50.006;21.964;2024-01-10T11:13:18;172.65;;;72.82;;
56999;SDS011;42891;50.006;21.964;2024-01-10T11:17:46;188.38;;;70.50;;
56999;SDS011;42891;50.006;21.964;2024-01-10T11:26:27;193.43;;;77.45;;
56999;SDS011;42891;50.006;21.964;2024-01-10T11:30:36;191.82;;;74.22;;
56999;SDS011;42891;50.006;21.964;2024-01-10T11:34:57;420.48;;;138.60;;
56999;SDS011;42891;50.006;21.964;2024-01-10T11:39:03;194.00;;;77.75;;
56999;SDS011;42891;50.006;21.964;2024-01-10T11:43:06;210.43;;;78.70;;
56999;SDS011;42891;50.006;21.964;2024-01-10T11:47:13;165.25;;;68.68;;
56999;SDS011;42891;50.006;21.964;2024-01-10T11:51:14;170.20;;;65.60;;
56999;SDS011;42891;50.006;21.964;2024-01-10T11:55:46;176.05;;;68.22;;
56999;SDS011;42891;50.006;21.964;2024-01-10T11:59:51;185.65;;;70.88;;
56999;SDS011;42891;50.006;21.964;2024-01-10T12:03:52;161.48;;;65.00;;
56999;SDS011;42891;50.006;21.964;2024-01-10T12:07:53;172.65;;;71.93;;
56999;SDS011;42891;50.006;21.964;2024-01-10T12:11:54;166.90;;;73.18;;
56999;SDS011;42891;50.006;21.964;2024-01-10T12:15:55;178.50;;;80.82;;
56999;SDS011;42891;50.006;21.964;2024-01-10T12:19:56;183.80;;;79.65;;
56999;SDS011;42891;50.006;21.964;2024-01-10T12:23:56;185.60;;;78.50;;
56999;SDS011;42891;50.006;21.964;2024-01-10T12:28:01;181.88;;;79.72;;
56999;SDS011;42891;50.006;21.964;2024-01-10T12:32:01;173.00;;;79.32;;
56999;SDS011;42891;50.006;21.964;2024-01-10T12:36:04;158.38;;;72.70;;
56999;SDS011;42891;50.006;21.964;2024-01-10T12:40:07;159.23;;;71.38;;
56999;SDS011;42891;50.006;21.964;2024-01-10T12:44:09;164.07;;;75.53;;
56999;SDS011;42891;50.006;21.964;2024-01-10T12:48:13;160.82;;;74.50;;
56999;SDS011;42891;50.006;21.964;2024-01-10T12:52:17;173.48;;;82.45;;
56999;SDS011;42891;50.006;21.964;2024-01-10T12:56:19;161.65;;;77.90;;
56999;SDS011;42891;50.006;21.964;2024-01-10T13:00:20;167.50;;;77.88;;
56999;SDS011;42891;50.006;21.964;2024-01-10T13:04:20;162.23;;;76.72;;
56999;SDS011;42891;50.006;21.964;2024-01-10T13:08:20;167.30;;;81.53;;
56999;SDS011;42891;50.006;21.964;2024-01-10T13:12:21;158.85;;;78.05;;
56999;SDS011;42891;50.006;21.964;2024-01-10T13:16:21;163.10;;;78.43;;
56999;SDS011;42891;50.006;21.964;2024-01-10T13:20:21;160.35;;;78.40;;
56999;SDS011;42891;50.006;21.964;2024-01-10T13:24:22;155.07;;;75.63;;
56999;SDS011;42891;50.006;21.964;2024-01-10T13:28:22;157.63;;;78.37;;
56999;SDS011;42891;50.006;21.964;2024-01-10T13:32:22;156.93;;;78.82;;
56999;SDS011;42891;50.006;21.964;2024-01-10T13:36:23;156.68;;;80.13;;
56999;SDS011;42891;50.006;21.964;2024-01-10T13:40:23;168.37;;;83.93;;
56999;SDS011;42891;50.006;21.964;2024-01-10T13:44:26;161.70;;;79.53;;
56999;SDS011;42891;50.006;21.964;2024-01-10T13:48:27;156.20;;;76.30;;
56999;SDS011;42891;50.006;21.964;2024-01-10T13:52:27;157.82;;;79.68;;
56999;SDS011;42891;50.006;21.964;2024-01-10T13:56:27;160.98;;;82.68;;
56999;SDS011;42891;50.006;21.964;2024-01-10T14:00:29;167.05;;;83.80;;
56999;SDS011;42891;50.006;21.964;2024-01-10T14:04:29;164.38;;;82.25;;
56999;SDS011;42891;50.006;21.964;2024-01-10T14:08:30;161.50;;;79.68;;
56999;SDS011;42891;50.006;21.964;2024-01-10T14:12:30;165.13;;;81.15;;
56999;SDS011;42891;50.006;21.964;2024-01-10T14:16:30;166.07;;;82.35;;
56999;SDS011;42891;50.006;21.964;2024-01-10T14:20:31;162.75;;;78.90;;
56999;SDS011;42891;50.006;21.964;2024-01-10T14:24:32;174.65;;;85.40;;
56999;SDS011;42891;50.006;21.964;2024-01-10T14:28:33;187.13;;;89.10;;
56999;SDS011;42891;50.006;21.964;2024-01-10T14:32:33;198.20;;;100.88;;
56999;SDS011;42891;50.006;21.964;2024-01-10T14:36:33;191.75;;;98.30;;
56999;SDS011;42891;50.006;21.964;2024-01-10T14:40:34;190.13;;;92.40;;
56999;SDS011;42891;50.006;21.964;2024-01-10T14:44:34;191.20;;;93.00;;
56999;SDS011;42891;50.006;21.964;2024-01-10T14:48:35;211.63;;;102.05;;
56999;SDS011;42891;50.006;21.964;2024-01-10T14:52:36;254.30;;;113.50;;
56999;SDS011;42891;50.006;21.964;2024-01-10T14:56:36;274.53;;;120.90;;
56999;SDS011;42891;50.006;21.964;2024-01-10T15:00:37;310.52;;;127.85;;
56999;SDS011;42891;50.006;21.964;2024-01-10T15:04:38;262.05;;;115.40;;
56999;SDS011;42891;50.006;21.964;2024-01-10T15:08:42;246.55;;;109.18;;
56999;SDS011;42891;50.006;21.964;2024-01-10T15:12:42;291.08;;;123.45;;
56999;SDS011;42891;50.006;21.964;2024-01-10T15:16:44;327.02;;;132.07;;
56999;SDS011;42891;50.006;21.964;2024-01-10T15:20:44;363.48;;;135.80;;
56999;SDS011;42891;50.006;21.964;2024-01-10T15:24:44;315.35;;;128.38;;
56999;SDS011;42891;50.006;21.964;2024-01-10T15:28:45;294.55;;;126.57;;
56999;SDS011;42891;50.006;21.964;2024-01-10T15:32:47;352.23;;;147.65;;
56999;SDS011;42891;50.006;21.964;2024-01-10T15:36:48;346.10;;;142.77;;
56999;SDS011;42891;50.006;21.964;2024-01-10T15:40:49;410.90;;;164.57;;
56999;SDS011;42891;50.006;21.964;2024-01-10T15:44:49;343.77;;;140.52;;
56999;SDS011;42891;50.006;21.964;2024-01-10T15:48:50;319.20;;;130.25;;
56999;SDS011;42891;50.006;21.964;2024-01-10T15:52:50;287.92;;;122.07;;
56999;SDS011;42891;50.006;21.964;2024-01-10T15:56:51;276.05;;;121.18;;
56999;SDS011;42891;50.006;21.964;2024-01-10T16:00:51;266.88;;;118.93;;
56999;SDS011;42891;50.006;21.964;2024-01-10T16:04:51;282.98;;;124.00;;
56999;SDS011;42891;50.006;21.964;2024-01-10T16:08:53;324.30;;;139.23;;
56999;SDS011;42891;50.006;21.964;2024-01-10T16:12:53;336.83;;;146.23;;
56999;SDS011;42891;50.006;21.964;2024-01-10T16:16:53;381.92;;;161.02;;
56999;SDS011;42891;50.006;21.964;2024-01-10T16:20:54;404.75;;;174.05;;
56999;SDS011;42891;50.006;21.964;2024-01-10T16:24:54;382.95;;;165.40;;
56999;SDS011;42891;50.006;21.964;2024-01-10T16:28:54;354.67;;;146.85;;
56999;SDS011;42891;50.006;21.964;2024-01-10T16:32:54;353.50;;;150.65;;
56999;SDS011;42891;50.006;21.964;2024-01-10T16:36:55;414.85;;;165.52;;
56999;SDS011;42891;50.006;21.964;2024-01-10T16:40:55;676.20;;;279.50;;
56999;SDS011;42891;50.006;21.964;2024-01-10T16:44:56;557.67;;;238.82;;
56999;SDS011;42891;50.006;21.964;2024-01-10T16:48:56;1040.85;;;395.60;;
56999;SDS011;42891;50.006;21.964;2024-01-10T16:52:57;1102.82;;;411.38;;
56999;SDS011;42891;50.006;21.964;2024-01-10T16:56:58;680.03;;;293.83;;
56999;SDS011;42891;50.006;21.964;2024-01-10T17:00:58;466.08;;;205.23;;
56999;SDS011;42891;50.006;21.964;2024-01-10T17:04:59;453.08;;;196.38;;
56999;SDS011;42891;50.006;21.964;2024-01-10T17:09:01;454.35;;;197.77;;
56999;SDS011;42891;50.006;21.964;2024-01-10T17:13:03;533.10;;;280.60;;
56999;SDS011;42891;50.006;21.964;2024-01-10T17:17:04;519.38;;;260.02;;
56999;SDS011;42891;50.006;21.964;2024-01-10T17:21:05;485.20;;;231.95;;
56999;SDS011;42891;50.006;21.964;2024-01-10T17:25:06;483.42;;;224.82;;
56999;SDS011;42891;50.006;21.964;2024-01-10T17:29:08;452.23;;;200.15;;
56999;SDS011;42891;50.006;21.964;2024-01-10T17:33:08;469.63;;;210.10;;
56999;SDS011;42891;50.006;21.964;2024-01-10T17:37:10;511.13;;;223.38;;
56999;SDS011;42891;50.006;21.964;2024-01-10T17:41:13;708.00;;;301.70;;
56999;SDS011;42891;50.006;21.964;2024-01-10T17:45:13;533.33;;;229.27;;
56999;SDS011;42891;50.006;21.964;2024-01-10T17:49:13;553.53;;;247.45;;
56999;SDS011;42891;50.006;21.964;2024-01-10T17:53:14;553.20;;;250.00;;
56999;SDS011;42891;50.006;21.964;2024-01-10T17:57:14;548.80;;;244.15;;
56999;SDS011;42891;50.006;21.964;2024-01-10T18:01:19;544.92;;;244.30;;
56999;SDS011;42891;50.006;21.964;2024-01-10T18:05:20;559.63;;;240.90;;
56999;SDS011;42891;50.006;21.964;2024-01-10T18:09:20;543.63;;;242.07;;
56999;SDS011;42891;50.006;21.964;2024-01-10T18:13:20;591.08;;;265.00;;
56999;SDS011;42891;50.006;21.964;2024-01-10T18:17:21;644.78;;;287.33;;
56999;SDS011;42891;50.006;21.964;2024-01-10T18:21:21;633.42;;;288.73;;
56999;SDS011;42891;50.006;21.964;2024-01-10T18:25:21;616.45;;;280.20;;
56999;SDS011;42891;50.006;21.964;2024-01-10T18:29:22;636.83;;;281.95;;
56999;SDS011;42891;50.006;21.964;2024-01-10T18:33:22;566.28;;;255.77;;
56999;SDS011;42891;50.006;21.964;2024-01-10T18:37:22;565.83;;;248.75;;
56999;SDS011;42891;50.006;21.964;2024-01-10T18:41:23;589.10;;;268.42;;
56999;SDS011;42891;50.006;21.964;2024-01-10T18:45:25;622.05;;;294.02;;
56999;SDS011;42891;50.006;21.964;2024-01-10T18:49:26;555.85;;;267.38;;
56999;SDS011;42891;50.006;21.964;2024-01-10T18:53:26;541.53;;;254.02;;
56999;SDS011;42891;50.006;21.964;2024-01-10T18:57:26;596.13;;;279.65;;
56999;SDS011;42891;50.006;21.964;2024-01-10T19:01:27;507.48;;;232.75;;
56999;SDS011;42891;50.006;21.964;2024-01-10T19:05:27;455.90;;;194.15;;
56999;SDS011;42891;50.006;21.964;2024-01-10T19:09:27;407.05;;;173.10;;
56999;SDS011;42891;50.006;21.964;2024-01-10T19:13:28;399.55;;;162.98;;
56999;SDS011;42891;50.006;21.964;2024-01-10T19:17:28;411.98;;;171.10;;
56999;SDS011;42891;50.006;21.964;2024-01-10T19:21:28;381.40;;;156.68;;
56999;SDS011;42891;50.006;21.964;2024-01-10T19:25:28;410.63;;;167.40;;
56999;SDS011;42891;50.006;21.964;2024-01-10T19:29:29;482.35;;;209.18;;
56999;SDS011;42891;50.006;21.964;2024-01-10T19:33:30;510.55;;;217.07;;
56999;SDS011;42891;50.006;21.964;2024-01-10T19:37:30;486.23;;;204.25;;
56999;SDS011;42891;50.006;21.964;2024-01-10T19:41:30;453.67;;;193.48;;
56999;SDS011;42891;50.006;21.964;2024-01-10T19:45:30;451.80;;;189.05;;
56999;SDS011;42891;50.006;21.964;2024-01-10T19:49:31;491.15;;;203.05;;
56999;SDS011;42891;50.006;21.964;2024-01-10T19:53:32;489.38;;;207.50;;
56999;SDS011;42891;50.006;21.964;2024-01-10T19:57:33;504.15;;;202.82;;
56999;SDS011;42891;50.006;21.964;2024-01-10T20:01:35;494.13;;;206.68;;
56999;SDS011;42891;50.006;21.964;2024-01-10T20:05:35;542.47;;;224.75;;
56999;SDS011;42891;50.006;21.964;2024-01-10T20:09:35;531.03;;;245.98;;
56999;SDS011;42891;50.006;21.964;2024-01-10T20:13:36;509.13;;;232.38;;
56999;SDS011;42891;50.006;21.964;2024-01-10T20:17:37;480.08;;;218.68;;
56999;SDS011;42891;50.006;21.964;2024-01-10T20:21:38;476.85;;;205.65;;
56999;SDS011;42891;50.006;21.964;2024-01-10T20:25:38;466.70;;;198.57;;
56999;SDS011;42891;50.006;21.964;2024-01-10T20:29:39;449.55;;;193.95;;
56999;SDS011;42891;50.006;21.964;2024-01-10T20:33:41;458.20;;;193.32;;
56999;SDS011;42891;50.006;21.964;2024-01-10T20:37:41;436.63;;;180.70;;
56999;SDS011;42891;50.006;21.964;2024-01-10T20:41:42;426.27;;;178.82;;
56999;SDS011;42891;50.006;21.964;2024-01-10T20:45:43;427.73;;;177.70;;
56999;SDS011;42891;50.006;21.964;2024-01-10T20:49:43;427.80;;;177.63;;
56999;SDS011;42891;50.006;21.964;2024-01-10T20:53:43;450.70;;;192.20;;
56999;SDS011;42891;50.006;21.964;2024-01-10T20:57:43;438.00;;;180.35;;
56999;SDS011;42891;50.006;21.964;2024-01-10T21:01:44;421.65;;;171.98;;
56999;SDS011;42891;50.006;21.964;2024-01-10T21:05:44;418.27;;;173.75;;
56999;SDS011;42891;50.006;21.964;2024-01-10T21:09:47;421.02;;;173.60;;
56999;SDS011;42891;50.006;21.964;2024-01-10T21:13:47;399.00;;;165.70;;
56999;SDS011;42891;50.006;21.964;2024-01-10T21:17:48;411.17;;;165.75;;
56999;SDS011;42891;50.006;21.964;2024-01-10T21:21:48;401.63;;;156.98;;
56999;SDS011;42891;50.006;21.964;2024-01-10T21:25:48;381.02;;;147.68;;
56999;SDS011;42891;50.006;21.964;2024-01-10T21:29:48;387.30;;;148.52;;
56999;SDS011;42891;50.006;21.964;2024-01-10T21:33:50;381.25;;;144.98;;
56999;SDS011;42891;50.006;21.964;2024-01-10T21:37:50;390.48;;;154.18;;
56999;SDS011;42891;50.006;21.964;2024-01-10T21:41:50;378.08;;;146.52;;
56999;SDS011;42891;50.006;21.964;2024-01-10T21:45:51;362.98;;;141.50;;
56999;SDS011;42891;50.006;21.964;2024-01-10T21:49:51;360.73;;;140.75;;
56999;SDS011;42891;50.006;21.964;2024-01-10T21:53:51;361.33;;;139.18;;
56999;SDS011;42891;50.006;21.964;2024-01-10T21:57:52;419.30;;;163.07;;
56999;SDS011;42891;50.006;21.964;2024-01-10T22:01:52;406.75;;;159.52;;
56999;SDS011;42891;50.006;21.964;2024-01-10T22:05:52;394.70;;;149.32;;
56999;SDS011;42891;50.006;21.964;2024-01-10T22:09:53;391.02;;;151.57;;
56999;SDS011;42891;50.006;21.964;2024-01-10T22:13:53;377.40;;;144.98;;
56999;SDS011;42891;50.006;21.964;2024-01-10T22:17:53;366.90;;;142.27;;
56999;SDS011;42891;50.006;21.964;2024-01-10T22:21:54;349.00;;;135.70;;
56999;SDS011;42891;50.006;21.964;2024-01-10T22:25:54;366.75;;;141.45;;
56999;SDS011;42891;50.006;21.964;2024-01-10T22:29:55;374.73;;;146.68;;
56999;SDS011;42891;50.006;21.964;2024-01-10T22:33:55;385.83;;;142.55;;
56999;SDS011;42891;50.006;21.964;2024-01-10T22:37:55;383.85;;;146.70;;
56999;SDS011;42891;50.006;21.964;2024-01-10T22:41:56;435.92;;;176.45;;